sensor_id;sensor_type;location;lat;lon;timestamp;temperature;humidity
42479;DHT22;28110;47.080;9.476;2023-06-14T00:02:14;16.60;76.60
42479;DHT22;28110;47.080;9.476;2023-06-14T00:04:39;16.50;76.50
42479;DHT22;28110;47.080;9.476;2023-06-14T00:07:06;16.50;76.90
42479;DHT22;28110;47.080;9.476;2023-06-14T00:09:35;16.50;77.80
42479;DHT22;28110;47.080;9.476;2023-06-14T00:12:01;16.40;78.40
42479;DHT22;28110;47.080;9.476;2023-06-14T00:14:26;16.40;78.40
42479;DHT22;28110;47.080;9.476;2023-06-14T00:16:52;16.30;78.80
42479;DHT22;28110;47.080;9.476;2023-06-14T00:19:24;16.30;79.00
42479;DHT22;28110;47.080;9.476;2023-06-14T00:21:50;16.30;79.40
42479;DHT22;28110;47.080;9.476;2023-06-14T00:24:17;16.30;79.80
42479;DHT22;28110;47.080;9.476;2023-06-14T00:26:42;16.20;80.10
42479;DHT22;28110;47.080;9.476;2023-06-14T00:29:08;16.30;80.20
42479;DHT22;28110;47.080;9.476;2023-06-14T00:31:33;16.20;80.40
42479;DHT22;28110;47.080;9.476;2023-06-14T00:33:59;16.10;80.70
42479;DHT22;28110;47.080;9.476;2023-06-14T00:36:25;16.00;81.00
42479;DHT22;28110;47.080;9.476;2023-06-14T00:38:51;16.00;81.20
42479;DHT22;28110;47.080;9.476;2023-06-14T00:41:16;16.00;82.00
42479;DHT22;28110;47.080;9.476;2023-06-14T00:43:42;15.90;82.60
42479;DHT22;28110;47.080;9.476;2023-06-14T00:46:08;15.80;83.10
42479;DHT22;28110;47.080;9.476;2023-06-14T00:48:34;15.80;83.10
42479;DHT22;28110;47.080;9.476;2023-06-14T00:51:00;15.80;83.80
42479;DHT22;28110;47.080;9.476;2023-06-14T00:53:29;15.70;84.10
42479;DHT22;28110;47.080;9.476;2023-06-14T00:55:56;15.70;83.80
42479;DHT22;28110;47.080;9.476;2023-06-14T00:58:22;15.70;83.50
42479;DHT22;28110;47.080;9.476;2023-06-14T01:00:48;15.70;83.10
42479;DHT22;28110;47.080;9.476;2023-06-14T01:03:13;15.70;83.10
42479;DHT22;28110;47.080;9.476;2023-06-14T01:05:44;15.70;83.00
42479;DHT22;28110;47.080;9.476;2023-06-14T01:11:26;15.70;82.80
42479;DHT22;28110;47.080;9.476;2023-06-14T01:13:53;15.60;83.40
42479;DHT22;28110;47.080;9.476;2023-06-14T01:16:21;15.50;83.50
42479;DHT22;28110;47.080;9.476;2023-06-14T01:18:47;15.50;83.70
42479;DHT22;28110;47.080;9.476;2023-06-14T01:21:24;15.40;84.30
42479;DHT22;28110;47.080;9.476;2023-06-14T01:23:51;15.40;85.20
42479;DHT22;28110;47.080;9.476;2023-06-14T01:26:19;15.40;85.60
42479;DHT22;28110;47.080;9.476;2023-06-14T01:28:44;15.30;85.70
42479;DHT22;28110;47.080;9.476;2023-06-14T01:31:19;15.30;85.80
42479;DHT22;28110;47.080;9.476;2023-06-14T01:33:48;15.30;85.30
42479;DHT22;28110;47.080;9.476;2023-06-14T01:36:15;15.30;85.30
42479;DHT22;28110;47.080;9.476;2023-06-14T01:38:42;15.30;85.30
42479;DHT22;28110;47.080;9.476;2023-06-14T01:41:09;15.30;85.60
42479;DHT22;28110;47.080;9.476;2023-06-14T01:43:35;15.20;86.00
42479;DHT22;28110;47.080;9.476;2023-06-14T01:46:02;15.20;86.10
42479;DHT22;28110;47.080;9.476;2023-06-14T01:48:28;15.20;86.10
42479;DHT22;28110;47.080;9.476;2023-06-14T01:50:54;15.20;86.60
42479;DHT22;28110;47.080;9.476;2023-06-14T01:53:19;15.10;86.90
42479;DHT22;28110;47.080;9.476;2023-06-14T01:55:46;15.00;87.10
42479;DHT22;28110;47.080;9.476;2023-06-14T01:58:14;15.00;87.20
42479;DHT22;28110;47.080;9.476;2023-06-14T02:00:41;14.90;87.10
42479;DHT22;28110;47.080;9.476;2023-06-14T02:03:08;14.90;87.40
42479;DHT22;28110;47.080;9.476;2023-06-14T02:05:34;14.90;86.80
42479;DHT22;28110;47.080;9.476;2023-06-14T02:08:00;14.90;87.60
42479;DHT22;28110;47.080;9.476;2023-06-14T02:10:25;14.80;87.70
42479;DHT22;28110;47.080;9.476;2023-06-14T02:12:51;14.80;87.60
42479;DHT22;28110;47.080;9.476;2023-06-14T02:15:17;14.80;87.70
42479;DHT22;28110;47.080;9.476;2023-06-14T02:17:43;14.70;87.80
42479;DHT22;28110;47.080;9.476;2023-06-14T02:20:10;14.70;87.60
42479;DHT22;28110;47.080;9.476;2023-06-14T02:22:36;14.70;87.90
42479;DHT22;28110;47.080;9.476;2023-06-14T02:25:02;14.70;89.00
42479;DHT22;28110;47.080;9.476;2023-06-14T02:27:28;14.70;89.90
42479;DHT22;28110;47.080;9.476;2023-06-14T02:29:53;14.60;90.10
42479;DHT22;28110;47.080;9.476;2023-06-14T02:32:19;14.60;90.20
42479;DHT22;28110;47.080;9.476;2023-06-14T02:34:44;14.50;90.30
42479;DHT22;28110;47.080;9.476;2023-06-14T02:37:15;14.50;90.40
42479;DHT22;28110;47.080;9.476;2023-06-14T02:39:40;14.40;91.00
42479;DHT22;28110;47.080;9.476;2023-06-14T02:42:06;14.40;90.70
42479;DHT22;28110;47.080;9.476;2023-06-14T02:44:32;14.40;90.70
42479;DHT22;28110;47.080;9.476;2023-06-14T02:46:57;14.30;90.60
42479;DHT22;28110;47.080;9.476;2023-06-14T02:49:26;14.30;90.50
42479;DHT22;28110;47.080;9.476;2023-06-14T02:51:51;14.30;90.50
42479;DHT22;28110;47.080;9.476;2023-06-14T02:54:17;14.30;90.90
42479;DHT22;28110;47.080;9.476;2023-06-14T02:56:43;14.30;91.10
42479;DHT22;28110;47.080;9.476;2023-06-14T02:59:08;14.30;91.20
42479;DHT22;28110;47.080;9.476;2023-06-14T03:01:34;14.30;91.30
42479;DHT22;28110;47.080;9.476;2023-06-14T03:04:01;14.20;91.10
42479;DHT22;28110;47.080;9.476;2023-06-14T03:06:29;14.20;91.00
42479;DHT22;28110;47.080;9.476;2023-06-14T03:08:56;14.20;91.10
42479;DHT22;28110;47.080;9.476;2023-06-14T03:11:25;14.20;91.20
42479;DHT22;28110;47.080;9.476;2023-06-14T03:13:51;14.20;91.30
42479;DHT22;28110;47.080;9.476;2023-06-14T03:16:17;14.10;91.60
42479;DHT22;28110;47.080;9.476;2023-06-14T03:18:48;14.10;91.60
42479;DHT22;28110;47.080;9.476;2023-06-14T03:21:13;14.00;91.80
42479;DHT22;28110;47.080;9.476;2023-06-14T03:23:41;14.00;91.70
42479;DHT22;28110;47.080;9.476;2023-06-14T03:26:07;14.00;92.20
42479;DHT22;28110;47.080;9.476;2023-06-14T03:28:33;13.90;92.30
42479;DHT22;28110;47.080;9.476;2023-06-14T03:30:59;13.90;92.20
42479;DHT22;28110;47.080;9.476;2023-06-14T03:33:25;13.90;92.20
42479;DHT22;28110;47.080;9.476;2023-06-14T03:35:51;13.90;92.20
42479;DHT22;28110;47.080;9.476;2023-06-14T03:38:17;13.90;92.30
42479;DHT22;28110;47.080;9.476;2023-06-14T03:40:42;13.90;92.40
42479;DHT22;28110;47.080;9.476;2023-06-14T03:43:09;13.80;92.40
42479;DHT22;28110;47.080;9.476;2023-06-14T03:45:35;13.80;92.60
42479;DHT22;28110;47.080;9.476;2023-06-14T03:48:01;13.80;92.60
42479;DHT22;28110;47.080;9.476;2023-06-14T03:50:26;13.80;92.60
42479;DHT22;28110;47.080;9.476;2023-06-14T03:52:52;13.80;92.70
42479;DHT22;28110;47.080;9.476;2023-06-14T03:55:18;13.80;92.80
42479;DHT22;28110;47.080;9.476;2023-06-14T03:57:44;13.80;92.70
42479;DHT22;28110;47.080;9.476;2023-06-14T04:00:10;13.80;92.90
42479;DHT22;28110;47.080;9.476;2023-06-14T04:02:37;13.80;93.00
42479;DHT22;28110;47.080;9.476;2023-06-14T04:05:03;13.80;93.10
42479;DHT22;28110;47.080;9.476;2023-06-14T04:07:28;13.90;93.20
42479;DHT22;28110;47.080;9.476;2023-06-14T04:09:55;13.90;93.10
42479;DHT22;28110;47.080;9.476;2023-06-14T04:12:20;13.90;93.30
42479;DHT22;28110;47.080;9.476;2023-06-14T04:14:46;13.90;93.40
42479;DHT22;28110;47.080;9.476;2023-06-14T04:17:12;13.90;93.50
42479;DHT22;28110;47.080;9.476;2023-06-14T04:19:37;13.80;93.40
42479;DHT22;28110;47.080;9.476;2023-06-14T04:22:03;13.80;93.60
42479;DHT22;28110;47.080;9.476;2023-06-14T04:24:29;13.70;93.60
42479;DHT22;28110;47.080;9.476;2023-06-14T04:27:00;13.70;93.80
42479;DHT22;28110;47.080;9.476;2023-06-14T04:29:26;13.70;93.80
42479;DHT22;28110;47.080;9.476;2023-06-14T04:31:54;13.80;93.90
42479;DHT22;28110;47.080;9.476;2023-06-14T04:34:20;13.80;94.10
42479;DHT22;28110;47.080;9.476;2023-06-14T04:36:47;13.90;94.00
42479;DHT22;28110;47.080;9.476;2023-06-14T04:39:18;14.00;94.10
42479;DHT22;28110;47.080;9.476;2023-06-14T04:41:44;14.20;94.20
42479;DHT22;28110;47.080;9.476;2023-06-14T04:44:10;14.40;93.90
42479;DHT22;28110;47.080;9.476;2023-06-14T04:46:36;14.40;93.90
42479;DHT22;28110;47.080;9.476;2023-06-14T04:49:15;14.60;94.30
42479;DHT22;28110;47.080;9.476;2023-06-14T04:51:42;14.80;94.40
42479;DHT22;28110;47.080;9.476;2023-06-14T04:54:08;14.90;94.30
42479;DHT22;28110;47.080;9.476;2023-06-14T04:56:36;15.00;93.80
42479;DHT22;28110;47.080;9.476;2023-06-14T04:59:03;15.00;93.40
42479;DHT22;28110;47.080;9.476;2023-06-14T05:01:30;15.10;93.50
42479;DHT22;28110;47.080;9.476;2023-06-14T05:04:00;15.20;93.10
42479;DHT22;28110;47.080;9.476;2023-06-14T05:06:25;15.20;93.00
42479;DHT22;28110;47.080;9.476;2023-06-14T05:08:53;15.20;93.10
42479;DHT22;28110;47.080;9.476;2023-06-14T05:11:18;15.20;93.10
42479;DHT22;28110;47.080;9.476;2023-06-14T05:13:44;15.20;93.20
42479;DHT22;28110;47.080;9.476;2023-06-14T05:16:10;15.30;93.40
42479;DHT22;28110;47.080;9.476;2023-06-14T05:18:36;15.50;93.40
42479;DHT22;28110;47.080;9.476;2023-06-14T05:21:03;15.60;93.40
42479;DHT22;28110;47.080;9.476;2023-06-14T05:23:29;15.80;94.00
42479;DHT22;28110;47.080;9.476;2023-06-14T05:25:55;16.20;93.70
42479;DHT22;28110;47.080;9.476;2023-06-14T05:28:22;16.40;92.80
42479;DHT22;28110;47.080;9.476;2023-06-14T05:30:47;16.50;92.10
42479;DHT22;28110;47.080;9.476;2023-06-14T05:33:13;16.60;91.80
42479;DHT22;28110;47.080;9.476;2023-06-14T05:35:38;16.80;91.60
42479;DHT22;28110;47.080;9.476;2023-06-14T05:38:04;17.10;90.50
42479;DHT22;28110;47.080;9.476;2023-06-14T05:40:29;17.30;90.70
42479;DHT22;28110;47.080;9.476;2023-06-14T05:42:55;17.40;90.50
42479;DHT22;28110;47.080;9.476;2023-06-14T05:45:21;17.60;90.90
42479;DHT22;28110;47.080;9.476;2023-06-14T05:47:46;17.60;90.00
42479;DHT22;28110;47.080;9.476;2023-06-14T05:50:12;17.50;90.30
42479;DHT22;28110;47.080;9.476;2023-06-14T05:52:37;17.60;90.10
42479;DHT22;28110;47.080;9.476;2023-06-14T05:55:04;17.80;90.20
42479;DHT22;28110;47.080;9.476;2023-06-14T05:57:29;18.10;88.90
42479;DHT22;28110;47.080;9.476;2023-06-14T05:59:55;18.40;87.60
42479;DHT22;28110;47.080;9.476;2023-06-14T06:02:20;18.60;82.70
42479;DHT22;28110;47.080;9.476;2023-06-14T06:04:46;18.80;83.50
42479;DHT22;28110;47.080;9.476;2023-06-14T06:07:12;19.00;82.60
42479;DHT22;28110;47.080;9.476;2023-06-14T06:09:37;19.20;82.70
42479;DHT22;28110;47.080;9.476;2023-06-14T06:12:04;19.40;81.50
42479;DHT22;28110;47.080;9.476;2023-06-14T06:14:30;19.50;81.40
42479;DHT22;28110;47.080;9.476;2023-06-14T06:16:56;19.50;81.70
42479;DHT22;28110;47.080;9.476;2023-06-14T06:19:21;19.60;81.70
42479;DHT22;28110;47.080;9.476;2023-06-14T06:21:47;19.60;81.40
42479;DHT22;28110;47.080;9.476;2023-06-14T06:24:12;19.90;80.80
42479;DHT22;28110;47.080;9.476;2023-06-14T06:26:38;20.10;78.50
42479;DHT22;28110;47.080;9.476;2023-06-14T06:29:05;20.30;80.30
42479;DHT22;28110;47.080;9.476;2023-06-14T06:31:30;20.50;80.60
42479;DHT22;28110;47.080;9.476;2023-06-14T06:33:56;20.70;77.10
42479;DHT22;28110;47.080;9.476;2023-06-14T06:36:21;20.80;78.00
42479;DHT22;28110;47.080;9.476;2023-06-14T06:38:48;21.00;78.80
42479;DHT22;28110;47.080;9.476;2023-06-14T06:41:13;21.20;78.00
42479;DHT22;28110;47.080;9.476;2023-06-14T06:43:39;21.10;77.20
42479;DHT22;28110;47.080;9.476;2023-06-14T06:46:04;21.20;79.40
42479;DHT22;28110;47.080;9.476;2023-06-14T06:48:30;21.30;77.80
42479;DHT22;28110;47.080;9.476;2023-06-14T06:50:56;21.40;77.60
42479;DHT22;28110;47.080;9.476;2023-06-14T06:53:21;21.50;77.40
42479;DHT22;28110;47.080;9.476;2023-06-14T06:55:48;21.70;77.20
42479;DHT22;28110;47.080;9.476;2023-06-14T06:58:13;21.80;78.50
42479;DHT22;28110;47.080;9.476;2023-06-14T07:00:39;22.00;78.40
42479;DHT22;28110;47.080;9.476;2023-06-14T07:03:05;22.20;77.50
42479;DHT22;28110;47.080;9.476;2023-06-14T07:05:30;22.30;76.80
42479;DHT22;28110;47.080;9.476;2023-06-14T07:07:56;22.50;76.40
42479;DHT22;28110;47.080;9.476;2023-06-14T07:10:22;22.70;77.20
42479;DHT22;28110;47.080;9.476;2023-06-14T07:12:50;22.70;73.90
42479;DHT22;28110;47.080;9.476;2023-06-14T07:15:15;22.70;77.40
42479;DHT22;28110;47.080;9.476;2023-06-14T07:17:41;22.80;76.80
42479;DHT22;28110;47.080;9.476;2023-06-14T07:20:08;22.70;76.00
42479;DHT22;28110;47.080;9.476;2023-06-14T07:22:43;22.90;77.00
42479;DHT22;28110;47.080;9.476;2023-06-14T07:25:09;23.00;73.80
42479;DHT22;28110;47.080;9.476;2023-06-14T07:27:37;22.50;71.10
42479;DHT22;28110;47.080;9.476;2023-06-14T07:30:03;22.30;71.10
42479;DHT22;28110;47.080;9.476;2023-06-14T07:32:29;22.00;73.30
42479;DHT22;28110;47.080;9.476;2023-06-14T07:34:55;22.00;75.20
42479;DHT22;28110;47.080;9.476;2023-06-14T07:37:20;21.90;75.30
42479;DHT22;28110;47.080;9.476;2023-06-14T07:39:46;22.00;73.80
42479;DHT22;28110;47.080;9.476;2023-06-14T07:42:11;21.90;74.20
42479;DHT22;28110;47.080;9.476;2023-06-14T07:44:37;21.80;74.30
42479;DHT22;28110;47.080;9.476;2023-06-14T07:47:02;21.50;74.50
42479;DHT22;28110;47.080;9.476;2023-06-14T07:49:28;21.40;74.70
42479;DHT22;28110;47.080;9.476;2023-06-14T07:51:53;21.70;76.90
42479;DHT22;28110;47.080;9.476;2023-06-14T07:54:19;21.80;73.10
42479;DHT22;28110;47.080;9.476;2023-06-14T07:56:50;21.90;70.80
42479;DHT22;28110;47.080;9.476;2023-06-14T07:59:16;21.80;70.30
42479;DHT22;28110;47.080;9.476;2023-06-14T08:01:41;21.80;69.00
42479;DHT22;28110;47.080;9.476;2023-06-14T08:04:12;21.80;68.90
42479;DHT22;28110;47.080;9.476;2023-06-14T08:06:38;22.10;72.20
42479;DHT22;28110;47.080;9.476;2023-06-14T08:09:04;21.90;66.60
42479;DHT22;28110;47.080;9.476;2023-06-14T08:11:30;22.00;66.60
42479;DHT22;28110;47.080;9.476;2023-06-14T08:13:56;21.90;67.40
42479;DHT22;28110;47.080;9.476;2023-06-14T08:16:22;22.00;67.10
42479;DHT22;28110;47.080;9.476;2023-06-14T08:18:49;22.00;64.00
42479;DHT22;28110;47.080;9.476;2023-06-14T08:21:14;22.00;66.80
42479;DHT22;28110;47.080;9.476;2023-06-14T08:23:40;21.90;66.50
42479;DHT22;28110;47.080;9.476;2023-06-14T08:26:08;22.00;66.00
42479;DHT22;28110;47.080;9.476;2023-06-14T08:28:34;22.00;65.10
42479;DHT22;28110;47.080;9.476;2023-06-14T08:30:59;22.00;66.70
42479;DHT22;28110;47.080;9.476;2023-06-14T08:33:25;22.00;66.80
42479;DHT22;28110;47.080;9.476;2023-06-14T08:35:51;22.10;67.00
42479;DHT22;28110;47.080;9.476;2023-06-14T08:38:16;22.30;68.00
42479;DHT22;28110;47.080;9.476;2023-06-14T08:40:42;22.10;65.40
42479;DHT22;28110;47.080;9.476;2023-06-14T08:43:08;22.20;66.20
42479;DHT22;28110;47.080;9.476;2023-06-14T08:45:33;22.20;66.90
42479;DHT22;28110;47.080;9.476;2023-06-14T08:47:59;22.30;65.60
42479;DHT22;28110;47.080;9.476;2023-06-14T08:50:26;22.20;65.80
42479;DHT22;28110;47.080;9.476;2023-06-14T08:52:56;22.40;65.90
42479;DHT22;28110;47.080;9.476;2023-06-14T08:55:23;22.40;65.30
42479;DHT22;28110;47.080;9.476;2023-06-14T08:57:54;22.40;64.50
42479;DHT22;28110;47.080;9.476;2023-06-14T09:00:21;22.30;64.60
42479;DHT22;28110;47.080;9.476;2023-06-14T09:02:47;22.30;66.40
42479;DHT22;28110;47.080;9.476;2023-06-14T09:05:13;22.40;66.50
42479;DHT22;28110;47.080;9.476;2023-06-14T09:07:42;22.40;66.00
42479;DHT22;28110;47.080;9.476;2023-06-14T09:10:12;22.50;66.70
42479;DHT22;28110;47.080;9.476;2023-06-14T09:12:38;22.40;65.50
42479;DHT22;28110;47.080;9.476;2023-06-14T09:15:08;22.40;65.80
42479;DHT22;28110;47.080;9.476;2023-06-14T09:17:40;22.50;65.30
42479;DHT22;28110;47.080;9.476;2023-06-14T09:20:08;22.40;63.40
42479;DHT22;28110;47.080;9.476;2023-06-14T09:22:44;22.60;65.00
42479;DHT22;28110;47.080;9.476;2023-06-14T09:25:10;22.60;63.20
42479;DHT22;28110;47.080;9.476;2023-06-14T09:27:37;22.70;62.90
42479;DHT22;28110;47.080;9.476;2023-06-14T09:30:05;22.70;64.30
42479;DHT22;28110;47.080;9.476;2023-06-14T09:32:39;22.80;64.00
42479;DHT22;28110;47.080;9.476;2023-06-14T09:35:09;22.90;64.00
42479;DHT22;28110;47.080;9.476;2023-06-14T09:37:35;22.90;64.60
42479;DHT22;28110;47.080;9.476;2023-06-14T09:40:03;23.00;66.10
42479;DHT22;28110;47.080;9.476;2023-06-14T09:42:29;23.10;66.70
42479;DHT22;28110;47.080;9.476;2023-06-14T09:44:56;23.20;65.90
42479;DHT22;28110;47.080;9.476;2023-06-14T09:47:24;23.40;66.00
42479;DHT22;28110;47.080;9.476;2023-06-14T09:49:51;23.30;66.00
42479;DHT22;28110;47.080;9.476;2023-06-14T09:52:19;23.40;67.40
42479;DHT22;28110;47.080;9.476;2023-06-14T09:54:46;23.40;68.00
42479;DHT22;28110;47.080;9.476;2023-06-14T09:57:20;23.40;65.20
42479;DHT22;28110;47.080;9.476;2023-06-14T09:59:47;23.30;65.20
42479;DHT22;28110;47.080;9.476;2023-06-14T10:02:29;23.30;64.70
42479;DHT22;28110;47.080;9.476;2023-06-14T10:05:02;23.30;63.10
42479;DHT22;28110;47.080;9.476;2023-06-14T10:07:35;23.40;64.80
42479;DHT22;28110;47.080;9.476;2023-06-14T10:10:03;23.40;65.50
42479;DHT22;28110;47.080;9.476;2023-06-14T10:12:30;23.60;63.50
42479;DHT22;28110;47.080;9.476;2023-06-14T10:14:56;23.60;63.40
42479;DHT22;28110;47.080;9.476;2023-06-14T10:17:46;23.70;61.30
42479;DHT22;28110;47.080;9.476;2023-06-14T10:20:30;23.70;60.10
42479;DHT22;28110;47.080;9.476;2023-06-14T10:23:18;23.50;60.40
42479;DHT22;28110;47.080;9.476;2023-06-14T10:25:45;23.70;61.10
42479;DHT22;28110;47.080;9.476;2023-06-14T10:28:16;23.80;61.10
42479;DHT22;28110;47.080;9.476;2023-06-14T10:31:04;24.00;61.80
42479;DHT22;28110;47.080;9.476;2023-06-14T10:33:31;24.10;61.60
42479;DHT22;28110;47.080;9.476;2023-06-14T10:36:10;24.20;59.50
42479;DHT22;28110;47.080;9.476;2023-06-14T10:38:37;24.20;59.00
42479;DHT22;28110;47.080;9.476;2023-06-14T10:41:04;24.30;59.90
42479;DHT22;28110;47.080;9.476;2023-06-14T10:43:31;24.20;60.40
42479;DHT22;28110;47.080;9.476;2023-06-14T10:46:16;24.30;58.50
42479;DHT22;28110;47.080;9.476;2023-06-14T10:48:45;24.30;58.70
42479;DHT22;28110;47.080;9.476;2023-06-14T10:51:20;24.30;58.70
42479;DHT22;28110;47.080;9.476;2023-06-14T10:53:48;24.60;60.40
42479;DHT22;28110;47.080;9.476;2023-06-14T10:56:32;24.60;58.40
42479;DHT22;28110;47.080;9.476;2023-06-14T10:58:58;24.70;56.40
42479;DHT22;28110;47.080;9.476;2023-06-14T11:01:36;24.70;56.80
42479;DHT22;28110;47.080;9.476;2023-06-14T11:04:09;24.60;56.60
42479;DHT22;28110;47.080;9.476;2023-06-14T11:06:48;24.70;57.00
42479;DHT22;28110;47.080;9.476;2023-06-14T11:12:01;24.70;56.60
42479;DHT22;28110;47.080;9.476;2023-06-14T11:14:31;24.90;57.10
42479;DHT22;28110;47.080;9.476;2023-06-14T11:16:57;24.90;55.80
42479;DHT22;28110;47.080;9.476;2023-06-14T11:19:22;24.90;56.10
42479;DHT22;28110;47.080;9.476;2023-06-14T11:21:49;24.90;56.50
42479;DHT22;28110;47.080;9.476;2023-06-14T11:24:15;25.00;55.90
42479;DHT22;28110;47.080;9.476;2023-06-14T11:26:40;25.00;56.40
42479;DHT22;28110;47.080;9.476;2023-06-14T11:29:06;25.20;55.40
42479;DHT22;28110;47.080;9.476;2023-06-14T11:31:32;25.10;54.90
42479;DHT22;28110;47.080;9.476;2023-06-14T11:33:59;25.00;54.10
42479;DHT22;28110;47.080;9.476;2023-06-14T11:36:33;24.90;55.20
42479;DHT22;28110;47.080;9.476;2023-06-14T11:39:03;25.10;55.20
42479;DHT22;28110;47.080;9.476;2023-06-14T11:41:38;25.20;53.90
42479;DHT22;28110;47.080;9.476;2023-06-14T11:44:05;25.20;55.10
42479;DHT22;28110;47.080;9.476;2023-06-14T11:46:31;25.20;53.40
42479;DHT22;28110;47.080;9.476;2023-06-14T11:48:57;25.30;55.90
42479;DHT22;28110;47.080;9.476;2023-06-14T11:51:23;25.40;53.80
42479;DHT22;28110;47.080;9.476;2023-06-14T11:53:49;25.40;53.40
42479;DHT22;28110;47.080;9.476;2023-06-14T11:56:15;25.50;54.40
42479;DHT22;28110;47.080;9.476;2023-06-14T11:58:43;25.50;53.60
42479;DHT22;28110;47.080;9.476;2023-06-14T12:01:08;25.50;53.20
42479;DHT22;28110;47.080;9.476;2023-06-14T12:03:34;25.40;53.30
42479;DHT22;28110;47.080;9.476;2023-06-14T12:06:08;25.50;54.80
42479;DHT22;28110;47.080;9.476;2023-06-14T12:08:36;25.50;53.40
42479;DHT22;28110;47.080;9.476;2023-06-14T12:11:11;25.50;54.40
42479;DHT22;28110;47.080;9.476;2023-06-14T12:13:41;25.70;54.20
42479;DHT22;28110;47.080;9.476;2023-06-14T12:16:08;25.70;53.10
42479;DHT22;28110;47.080;9.476;2023-06-14T12:18:39;25.70;53.70
42479;DHT22;28110;47.080;9.476;2023-06-14T12:21:09;25.60;52.40
42479;DHT22;28110;47.080;9.476;2023-06-14T12:23:48;25.70;53.50
42479;DHT22;28110;47.080;9.476;2023-06-14T12:26:16;25.60;52.00
42479;DHT22;28110;47.080;9.476;2023-06-14T12:28:42;25.70;52.40
42479;DHT22;28110;47.080;9.476;2023-06-14T12:31:10;25.70;52.20
42479;DHT22;28110;47.080;9.476;2023-06-14T12:33:36;25.70;51.50
42479;DHT22;28110;47.080;9.476;2023-06-14T12:36:07;25.70;50.60
42479;DHT22;28110;47.080;9.476;2023-06-14T12:38:33;25.70;50.50
42479;DHT22;28110;47.080;9.476;2023-06-14T12:40:59;25.70;51.10
42479;DHT22;28110;47.080;9.476;2023-06-14T12:43:25;25.70;50.50
42479;DHT22;28110;47.080;9.476;2023-06-14T12:45:51;25.80;52.00
42479;DHT22;28110;47.080;9.476;2023-06-14T12:48:16;25.90;50.10
42479;DHT22;28110;47.080;9.476;2023-06-14T12:50:42;25.90;49.70
42479;DHT22;28110;47.080;9.476;2023-06-14T12:53:08;25.80;50.30
42479;DHT22;28110;47.080;9.476;2023-06-14T12:55:33;25.80;49.60
42479;DHT22;28110;47.080;9.476;2023-06-14T12:57:59;25.60;48.90
42479;DHT22;28110;47.080;9.476;2023-06-14T13:00:25;25.50;50.40
42479;DHT22;28110;47.080;9.476;2023-06-14T13:02:55;25.50;49.80
42479;DHT22;28110;47.080;9.476;2023-06-14T13:05:20;25.50;49.60
42479;DHT22;28110;47.080;9.476;2023-06-14T13:07:46;25.50;50.20
42479;DHT22;28110;47.080;9.476;2023-06-14T13:10:12;25.60;49.40
42479;DHT22;28110;47.080;9.476;2023-06-14T13:12:37;25.70;49.10
42479;DHT22;28110;47.080;9.476;2023-06-14T13:15:03;25.70;48.90
42479;DHT22;28110;47.080;9.476;2023-06-14T13:17:28;25.80;48.70
42479;DHT22;28110;47.080;9.476;2023-06-14T13:19:54;25.80;49.40
42479;DHT22;28110;47.080;9.476;2023-06-14T13:22:19;25.90;49.50
42479;DHT22;28110;47.080;9.476;2023-06-14T13:24:46;26.00;50.30
42479;DHT22;28110;47.080;9.476;2023-06-14T13:27:11;26.20;49.00
42479;DHT22;28110;47.080;9.476;2023-06-14T13:29:39;26.20;48.50
42479;DHT22;28110;47.080;9.476;2023-06-14T13:32:05;26.20;49.10
42479;DHT22;28110;47.080;9.476;2023-06-14T13:34:31;26.20;48.90
42479;DHT22;28110;47.080;9.476;2023-06-14T13:36:57;26.10;47.80
42479;DHT22;28110;47.080;9.476;2023-06-14T13:39:24;26.00;48.50
42479;DHT22;28110;47.080;9.476;2023-06-14T13:41:50;25.90;47.60
42479;DHT22;28110;47.080;9.476;2023-06-14T13:44:16;25.80;47.60
42479;DHT22;28110;47.080;9.476;2023-06-14T13:46:44;25.90;48.40
42479;DHT22;28110;47.080;9.476;2023-06-14T13:49:09;25.90;48.90
42479;DHT22;28110;47.080;9.476;2023-06-14T13:51:35;25.80;48.90
42479;DHT22;28110;47.080;9.476;2023-06-14T13:54:01;25.60;48.60
42479;DHT22;28110;47.080;9.476;2023-06-14T13:56:27;25.60;48.30
42479;DHT22;28110;47.080;9.476;2023-06-14T13:58:52;25.40;48.70
42479;DHT22;28110;47.080;9.476;2023-06-14T14:01:18;25.50;48.60
42479;DHT22;28110;47.080;9.476;2023-06-14T14:03:46;25.50;48.00
42479;DHT22;28110;47.080;9.476;2023-06-14T14:06:12;25.50;47.90
42479;DHT22;28110;47.080;9.476;2023-06-14T14:08:38;25.50;48.20
42479;DHT22;28110;47.080;9.476;2023-06-14T14:11:05;25.60;48.50
42479;DHT22;28110;47.080;9.476;2023-06-14T14:13:31;25.70;48.90
42479;DHT22;28110;47.080;9.476;2023-06-14T14:15:57;25.80;48.90
42479;DHT22;28110;47.080;9.476;2023-06-14T14:18:22;25.80;48.00
42479;DHT22;28110;47.080;9.476;2023-06-14T14:20:48;25.60;47.50
42479;DHT22;28110;47.080;9.476;2023-06-14T14:23:14;25.70;46.70
42479;DHT22;28110;47.080;9.476;2023-06-14T14:25:40;25.60;47.20
42479;DHT22;28110;47.080;9.476;2023-06-14T14:28:05;25.60;47.80
42479;DHT22;28110;47.080;9.476;2023-06-14T14:30:31;25.60;47.30
42479;DHT22;28110;47.080;9.476;2023-06-14T14:32:56;25.70;47.40
42479;DHT22;28110;47.080;9.476;2023-06-14T14:35:22;25.70;46.60
42479;DHT22;28110;47.080;9.476;2023-06-14T14:37:49;25.70;46.10
42479;DHT22;28110;47.080;9.476;2023-06-14T14:40:15;25.60;47.40
42479;DHT22;28110;47.080;9.476;2023-06-14T14:42:41;25.50;46.30
42479;DHT22;28110;47.080;9.476;2023-06-14T14:45:06;25.30;46.10
42479;DHT22;28110;47.080;9.476;2023-06-14T14:47:32;25.20;47.40
42479;DHT22;28110;47.080;9.476;2023-06-14T14:49:58;25.30;47.80
42479;DHT22;28110;47.080;9.476;2023-06-14T14:52:23;25.30;47.00
42479;DHT22;28110;47.080;9.476;2023-06-14T14:54:50;25.20;47.70
42479;DHT22;28110;47.080;9.476;2023-06-14T14:57:15;25.20;46.70
42479;DHT22;28110;47.080;9.476;2023-06-14T14:59:41;25.20;48.00
42479;DHT22;28110;47.080;9.476;2023-06-14T15:02:06;25.20;47.90
42479;DHT22;28110;47.080;9.476;2023-06-14T15:04:32;25.30;48.20
42479;DHT22;28110;47.080;9.476;2023-06-14T15:06:57;25.40;47.70
42479;DHT22;28110;47.080;9.476;2023-06-14T15:09:23;25.40;47.00
42479;DHT22;28110;47.080;9.476;2023-06-14T15:11:48;25.30;47.50
42479;DHT22;28110;47.080;9.476;2023-06-14T15:14:14;25.20;47.70
42479;DHT22;28110;47.080;9.476;2023-06-14T15:16:40;25.20;48.30
42479;DHT22;28110;47.080;9.476;2023-06-14T15:19:06;25.20;47.20
42479;DHT22;28110;47.080;9.476;2023-06-14T15:21:31;25.00;46.80
42479;DHT22;28110;47.080;9.476;2023-06-14T15:23:57;24.90;47.00
42479;DHT22;28110;47.080;9.476;2023-06-14T15:26:22;24.80;47.80
42479;DHT22;28110;47.080;9.476;2023-06-14T15:28:49;24.90;47.90
42479;DHT22;28110;47.080;9.476;2023-06-14T15:31:15;25.00;48.20
42479;DHT22;28110;47.080;9.476;2023-06-14T15:33:41;25.00;49.10
42479;DHT22;28110;47.080;9.476;2023-06-14T15:36:06;25.10;47.80